createdAt,value
2023-04-18T00:00:56.387Z,990.03
2023-04-18T00:01:56.033Z,990.65
2023-04-18T00:02:56.276Z,991.69
2023-04-18T00:03:56.137Z,992.39
2023-04-18T00:04:56.473Z,992.94
2023-04-18T00:05:56.032Z,993.92
2023-04-18T00:06:55.954Z,994.33
2023-04-18T00:07:55.954Z,994.75
2023-04-18T00:08:55.988Z,995.43
2023-04-18T00:09:56.235Z,996.07
2023-04-18T00:10:55.942Z,997.00
2023-04-18T00:11:55.879Z,997.74
2023-04-18T00:12:55.896Z,999.44
2023-04-18T00:13:55.905Z,1001.05
2023-04-18T00:14:55.856Z,1001.86
2023-04-18T00:15:55.837Z,1002.19
2023-04-18T00:16:55.935Z,1002.80
2023-04-18T00:17:55.846Z,1003.52
2023-04-18T00:18:55.841Z,1004.66
2023-04-18T00:19:55.822Z,1004.79
2023-04-18T00:20:55.783Z,1004.92
2023-04-18T00:21:56.108Z,1004.96
2023-04-18T00:22:55.738Z,1005.04
2023-04-18T00:23:55.769Z,1005.21
2023-04-18T00:24:55.735Z,1005.55
2023-04-18T00:25:55.709Z,1005.58
2023-04-18T00:26:58.438Z,1004.95
2023-04-18T00:27:55.709Z,1005.53
2023-04-18T00:28:55.689Z,1006.31
2023-04-18T00:29:55.713Z,1007.47
2023-04-18T00:30:56.073Z,1008.17
2023-04-18T00:32:04.092Z,1008.97
2023-04-18T00:33:02.990Z,1009.17
2023-04-18T00:34:03.431Z,1009.44
2023-04-18T00:35:02.997Z,1010.22
2023-04-18T00:35:55.957Z,1011.41
2023-04-18T00:36:55.612Z,1012.46
2023-04-18T00:37:55.926Z,1013.27
2023-04-18T00:38:55.582Z,1013.73
2023-04-18T00:39:55.910Z,1014.04
2023-04-18T00:40:55.600Z,1013.73
2023-04-18T00:41:55.524Z,1014.44
2023-04-18T00:42:55.883Z,1014.67
2023-04-18T00:43:55.519Z,1015.39
2023-04-18T00:44:55.535Z,1015.89
2023-04-18T00:45:55.510Z,1016.83
2023-04-18T00:46:55.517Z,1017.58
2023-04-18T00:47:55.556Z,1017.69
2023-04-18T00:48:55.469Z,1018.33
2023-04-18T00:49:55.440Z,1018.84
2023-04-18T00:50:55.455Z,1019.86
2023-04-18T00:51:55.455Z,1020.10
2023-04-18T00:52:55.406Z,1019.92
2023-04-18T00:53:55.461Z,1019.90
2023-04-18T00:54:55.770Z,1020.04
2023-04-18T00:55:55.363Z,1020.24
2023-04-18T00:56:55.386Z,1020.17
2023-04-18T00:57:55.326Z,1020.12
2023-04-18T00:58:55.375Z,1020.43
2023-04-18T00:59:55.342Z,1021.26
2023-04-18T01:00:55.325Z,1021.62
2023-04-18T01:01:55.463Z,1021.90
2023-04-18T01:02:56.039Z,1022.86
2023-04-18T01:03:55.507Z,1023.39
2023-04-18T01:04:55.590Z,1023.79
2023-04-18T01:05:55.275Z,1024.17
2023-04-18T01:06:55.265Z,1024.06
2023-04-18T01:07:55.252Z,1023.64
2023-04-18T01:08:55.227Z,1023.67
2023-04-18T01:09:55.207Z,1023.81
2023-04-18T01:10:55.206Z,1024.26
2023-04-18T01:11:55.197Z,1024.36
2023-04-18T01:12:55.218Z,1024.43
2023-04-18T01:13:55.201Z,1024.81
2023-04-18T01:14:55.187Z,1025.12
2023-04-18T01:15:55.605Z,1024.91
2023-04-18T01:16:55.102Z,1025.08
2023-04-18T01:17:56.921Z,1025.17
2023-04-18T01:18:55.109Z,1025.16
2023-04-18T01:19:55.133Z,1025.29
2023-04-18T01:20:55.080Z,1025.98
2023-04-18T01:21:55.093Z,1026.42
2023-04-18T01:22:55.115Z,1026.63
2023-04-18T01:23:57.806Z,1026.60
2023-04-18T01:24:55.041Z,1026.94
2023-04-18T01:25:55.317Z,1027.41
2023-04-18T01:26:55.877Z,1027.52
2023-04-18T01:27:54.982Z,1028.37
2023-04-18T01:28:55.371Z,1028.74
2023-04-18T01:29:55.029Z,1029.05
2023-04-18T01:30:54.988Z,1029.05
2023-04-18T01:31:54.944Z,1029.10
2023-04-18T01:32:54.964Z,1028.97
2023-04-18T01:33:54.951Z,1028.98
2023-04-18T01:34:55.201Z,1029.08
2023-04-18T01:35:55.457Z,1029.08
2023-04-18T01:36:54.921Z,1029.07
2023-04-18T01:37:55.247Z,1028.79
2023-04-18T01:38:54.914Z,1029.33
2023-04-18T01:39:54.846Z,1029.74
2023-04-18T01:40:56.706Z,1030.02
2023-04-18T01:41:55.954Z,1030.35
2023-04-18T01:42:55.229Z,1030.51
2023-04-18T01:43:54.837Z,1030.56
2023-04-18T01:44:54.807Z,1030.84
2023-04-18T01:45:56.737Z,1031.01
2023-04-18T01:46:54.839Z,1031.15
2023-04-18T01:47:55.080Z,1031.27
2023-04-18T01:48:55.294Z,1031.24
2023-04-18T01:49:54.807Z,1031.02
2023-04-18T01:50:54.728Z,1031.15
2023-04-18T01:51:56.521Z,1031.43
2023-04-18T01:52:56.650Z,1031.63
2023-04-18T01:53:55.094Z,1031.75
2023-04-18T01:54:55.060Z,1031.73
2023-04-18T01:55:55.522Z,1031.84
2023-04-18T01:56:56.504Z,1032.16
2023-04-18T01:57:57.488Z,1032.22
2023-04-18T01:58:55.034Z,1032.30
2023-04-18T01:59:55.948Z,1032.41
2023-04-18T02:00:55.012Z,1032.49
2023-04-18T02:01:54.714Z,1032.60
2023-04-18T02:02:56.618Z,1032.68
2023-04-18T02:03:55.141Z,1032.59
2023-04-18T02:04:54.933Z,1032.57
2023-04-18T02:05:55.062Z,1032.57
2023-04-18T02:06:55.476Z,1032.57
2023-04-18T02:07:54.539Z,1032.56
2023-04-18T02:08:57.335Z,1032.56
2023-04-18T02:09:54.832Z,1032.49
2023-04-18T02:10:56.419Z,1032.46
2023-04-18T02:11:54.747Z,1032.45
2023-04-18T02:12:54.840Z,1032.45
2023-04-18T02:13:56.363Z,1032.47
2023-04-18T02:14:54.484Z,1032.46
2023-04-18T02:15:54.818Z,1032.46
2023-04-18T02:16:54.900Z,1032.48
2023-04-18T02:17:54.885Z,1032.43
2023-04-18T02:18:54.724Z,1032.36
2023-04-18T02:19:54.783Z,1032.37
2023-04-18T02:21:03.404Z,1032.37
2023-04-18T02:22:03.242Z,1032.43
2023-04-18T02:23:03.671Z,1032.47
2023-04-18T02:23:54.363Z,1032.48
2023-04-18T02:24:54.656Z,1032.50
2023-04-18T02:25:54.761Z,1032.44
2023-04-18T02:26:54.715Z,1032.46
2023-04-18T02:27:54.613Z,1032.45
2023-04-18T02:28:54.665Z,1032.46
2023-04-18T02:29:54.291Z,1032.46
2023-04-18T02:30:54.448Z,1032.42
2023-04-18T02:31:54.312Z,1032.36
2023-04-18T02:32:56.177Z,1032.35
2023-04-18T02:33:54.291Z,1032.32
2023-04-18T02:34:54.212Z,1032.31
2023-04-18T02:35:56.119Z,1032.26
2023-04-18T02:36:54.564Z,1032.24
2023-04-18T02:37:56.105Z,1032.23
2023-04-18T02:38:56.057Z,1032.23
2023-04-18T02:39:56.933Z,1032.17
2023-04-18T02:40:54.907Z,1032.13
2023-04-18T02:41:57.005Z,1032.12
2023-04-18T02:42:55.925Z,1032.10
2023-04-18T02:43:54.922Z,1032.10
2023-04-18T02:44:54.453Z,1032.08
2023-04-18T02:45:56.062Z,1032.00
2023-04-18T02:46:55.868Z,1031.95
2023-04-18T02:47:57.007Z,1032.00
2023-04-18T02:48:55.904Z,1031.93
2023-04-18T02:49:54.372Z,1031.85
2023-04-18T02:50:54.366Z,1031.80
2023-04-18T02:51:54.406Z,1031.80
2023-04-18T02:52:54.406Z,1031.77
2023-04-18T02:53:54.386Z,1031.74
2023-04-18T02:54:54.379Z,1031.77
2023-04-18T02:55:56.825Z,1031.73
2023-04-18T02:56:56.813Z,1031.72
2023-04-18T02:57:54.257Z,1031.74
2023-04-18T02:58:54.000Z,1031.71
2023-04-18T02:59:53.948Z,1031.68
2023-04-18T03:00:53.985Z,1031.65
2023-04-18T03:01:54.290Z,1031.69
2023-04-18T03:02:54.041Z,1031.69
2023-04-18T03:03:56.673Z,1031.69
2023-04-18T03:04:53.908Z,1031.71
2023-04-18T03:05:53.973Z,1031.69
2023-04-18T03:06:53.911Z,1031.60
2023-04-18T03:07:53.863Z,1031.55
2023-04-18T03:08:54.155Z,1031.62
2023-04-18T03:09:53.812Z,1031.56
2023-04-18T03:10:55.096Z,1031.58
2023-04-18T03:11:53.808Z,1031.55
2023-04-18T03:12:53.814Z,1031.54
2023-04-18T03:13:53.785Z,1031.49
2023-04-18T03:14:53.778Z,1031.48
2023-04-18T03:15:53.790Z,1031.50
2023-04-18T03:16:55.224Z,1031.47
2023-04-18T03:17:53.792Z,1031.46
2023-04-18T03:18:53.726Z,1031.45
2023-04-18T03:19:53.697Z,1031.44
2023-04-18T03:20:53.743Z,1031.40
2023-04-18T03:21:53.699Z,1031.45
2023-04-18T03:22:53.688Z,1031.45
2023-04-18T03:23:53.692Z,1031.41
2023-04-18T03:24:53.677Z,1031.39
2023-04-18T03:25:53.674Z,1031.38
2023-04-18T03:26:53.633Z,1031.33
2023-04-18T03:27:53.641Z,1031.29
2023-04-18T03:28:53.607Z,1031.36
2023-04-18T03:29:53.605Z,1031.29
2023-04-18T03:30:53.632Z,1031.33
2023-04-18T03:31:53.574Z,1031.33
2023-04-18T03:32:53.713Z,1031.34
2023-04-18T03:33:53.575Z,1031.35
2023-04-18T03:34:53.577Z,1031.38
2023-04-18T03:35:53.535Z,1031.41
2023-04-18T03:36:53.533Z,1031.39
2023-04-18T03:37:53.527Z,1031.42
2023-04-18T03:38:53.541Z,1031.42
2023-04-18T03:39:53.495Z,1031.42
2023-04-18T03:40:56.183Z,1031.38
2023-04-18T03:41:53.512Z,1031.34
2023-04-18T03:42:56.193Z,1031.33
2023-04-18T03:43:53.481Z,1031.28
2023-04-18T03:44:53.431Z,1031.21
2023-04-18T03:45:53.520Z,1031.19
2023-04-18T03:46:53.400Z,1031.18
2023-04-18T03:47:53.450Z,1031.19
2023-04-18T03:48:53.746Z,1031.29
2023-04-18T03:49:53.365Z,1031.31
2023-04-18T03:50:53.377Z,1031.29
2023-04-18T03:51:53.366Z,1031.28
2023-04-18T03:52:53.763Z,1031.28
2023-04-18T03:53:53.340Z,1031.31
2023-04-18T03:54:53.313Z,1031.29
2023-04-18T03:55:53.329Z,1031.23
2023-04-18T03:56:53.298Z,1031.18
2023-04-18T03:57:53.313Z,1031.21
2023-04-18T03:58:53.281Z,1031.21
2023-04-18T03:59:53.287Z,1031.14
2023-04-18T04:00:53.294Z,1031.09
2023-04-18T04:01:53.371Z,1031.12
2023-04-18T04:03:00.646Z,1031.12
2023-04-18T04:04:00.620Z,1031.09
2023-04-18T04:05:00.282Z,1031.03
2023-04-18T04:06:00.550Z,1031.06
2023-04-18T04:07:03.107Z,1031.10
2023-04-18T04:07:53.192Z,1031.08
2023-04-18T04:08:53.400Z,1031.06
2023-04-18T04:09:53.164Z,1031.11
2023-04-18T04:10:53.153Z,1031.08
2023-04-18T04:11:53.122Z,1031.05
2023-04-18T04:12:53.133Z,1031.09
2023-04-18T04:13:53.130Z,1031.04
2023-04-18T04:14:53.430Z,1031.05
2023-04-18T04:15:53.187Z,1031.03
2023-04-18T04:16:53.478Z,1031.03
2023-04-18T04:17:53.123Z,1030.96
2023-04-18T04:18:53.099Z,1030.98
2023-04-18T04:19:53.050Z,1031.03
2023-04-18T04:20:53.049Z,1031.09
2023-04-18T04:21:53.027Z,1031.21
2023-04-18T04:22:53.029Z,1031.25
2023-04-18T04:23:53.034Z,1031.28
2023-04-18T04:24:52.998Z,1031.30
2023-04-18T04:25:52.978Z,1031.40
2023-04-18T04:26:52.980Z,1031.44
2023-04-18T04:27:55.654Z,1031.48
2023-04-18T04:28:52.940Z,1031.48
2023-04-18T04:29:53.226Z,1031.51
2023-04-18T04:30:52.933Z,1031.52
2023-04-18T04:31:53.039Z,1031.52
2023-04-18T04:32:52.970Z,1031.59
2023-04-18T04:33:52.896Z,1031.74
2023-04-18T04:34:52.867Z,1031.80
2023-04-18T04:35:53.250Z,1031.85
2023-04-18T04:36:52.840Z,1031.90
2023-04-18T04:37:52.840Z,1031.87
2023-04-18T04:38:52.895Z,1031.83
2023-04-18T04:39:52.845Z,1031.74
2023-04-18T04:40:52.835Z,1031.75
2023-04-18T04:41:52.808Z,1031.85
2023-04-18T04:42:52.845Z,1031.92
2023-04-18T04:43:52.801Z,1032.01
2023-04-18T04:44:52.829Z,1032.00
2023-04-18T04:45:52.800Z,1031.95
2023-04-18T04:46:52.722Z,1031.98
2023-04-18T04:47:52.773Z,1032.03
2023-04-18T04:48:53.038Z,1032.09
2023-04-18T04:49:52.740Z,1032.23
2023-04-18T04:50:55.484Z,1032.26
2023-04-18T04:51:55.518Z,1032.28
2023-04-18T04:52:52.675Z,1032.36
2023-04-18T04:53:54.481Z,1032.35
2023-04-18T04:54:52.649Z,1032.38
2023-04-18T04:55:52.651Z,1032.43
2023-04-18T04:56:52.647Z,1032.45
2023-04-18T04:57:52.744Z,1032.56
2023-04-18T04:58:52.642Z,1032.60
2023-04-18T04:59:52.581Z,1032.70
2023-04-18T05:00:52.715Z,1032.60
2023-04-18T05:01:52.738Z,1032.59
2023-04-18T05:02:52.679Z,1032.75
2023-04-18T05:03:53.039Z,1032.79
2023-04-18T05:04:56.072Z,1032.81
2023-04-18T05:05:55.484Z,1032.83
2023-04-18T05:06:52.522Z,1033.02
2023-04-18T05:07:52.504Z,1033.06
2023-04-18T05:08:52.504Z,1033.07
2023-04-18T05:09:52.502Z,1033.08
2023-04-18T05:10:52.485Z,1033.26
2023-04-18T05:11:52.444Z,1033.29
2023-04-18T05:12:52.484Z,1033.38
2023-04-18T05:13:52.427Z,1033.36
2023-04-18T05:14:52.778Z,1033.25
2023-04-18T05:15:52.807Z,1033.17
2023-04-18T05:16:52.792Z,1032.93
2023-04-18T05:17:52.477Z,1032.84
2023-04-18T05:18:52.369Z,1032.79
2023-04-18T05:19:52.376Z,1032.54
2023-04-18T05:20:52.668Z,1032.41
2023-04-18T05:21:52.380Z,1032.26
2023-04-18T05:22:52.334Z,1031.94
2023-04-18T05:23:52.686Z,1031.85
2023-04-18T05:24:52.343Z,1031.57
2023-04-18T05:25:52.339Z,1031.03
2023-04-18T05:26:57.606Z,1030.51
2023-04-18T05:27:52.309Z,1030.21
2023-04-18T05:28:52.661Z,1029.51
2023-04-18T05:29:52.254Z,1029.14
2023-04-18T05:30:52.570Z,1028.66
2023-04-18T05:31:52.555Z,1028.38
2023-04-18T05:32:52.268Z,1027.91
2023-04-18T05:33:52.295Z,1027.55
2023-04-18T05:34:52.488Z,1026.89
2023-04-18T05:35:52.264Z,1026.84
2023-04-18T05:36:52.447Z,1026.71
2023-04-18T05:37:52.520Z,1026.17
2023-04-18T05:38:52.423Z,1025.59
2023-04-18T05:39:52.130Z,1025.65
2023-04-18T05:40:52.105Z,1025.62
2023-04-18T05:41:52.144Z,1025.46
2023-04-18T05:42:52.139Z,1025.35
2023-04-18T05:44:16.950Z,1025.04
2023-04-18T05:44:53.059Z,1025.18
2023-04-18T05:45:58.011Z,1024.60
2023-04-18T05:47:00.063Z,1024.13
2023-04-18T05:48:00.434Z,1024.00
2023-04-18T05:49:00.054Z,1024.00
2023-04-18T05:50:01.384Z,1024.73
2023-04-18T05:50:59.378Z,1024.56
2023-04-18T05:52:00.504Z,1024.17
2023-04-18T05:52:52.010Z,1023.89
2023-04-18T05:53:51.974Z,1023.89
2023-04-18T05:54:52.232Z,1023.80
2023-04-18T05:55:51.960Z,1023.56
2023-04-18T05:56:51.960Z,1023.63
2023-04-18T05:57:51.937Z,1023.70
2023-04-18T05:58:51.922Z,1023.68
2023-04-18T05:59:51.949Z,1023.02
2023-04-18T06:00:51.893Z,1022.55
2023-04-18T06:01:52.215Z,1022.40
2023-04-18T06:02:52.059Z,1022.44
2023-04-18T06:03:52.081Z,1022.30
2023-04-18T06:04:52.030Z,1022.12
2023-04-18T06:05:51.865Z,1021.87
2023-04-18T06:06:51.846Z,1021.73
2023-04-18T06:07:51.847Z,1021.98
2023-04-18T06:08:51.796Z,1021.91
2023-04-18T06:09:51.820Z,1021.55
2023-04-18T06:10:51.763Z,1021.52
2023-04-18T06:11:51.778Z,1021.49
2023-04-18T06:12:51.775Z,1021.54
2023-04-18T06:13:51.756Z,1021.90
2023-04-18T06:14:51.713Z,1022.01
2023-04-18T06:15:51.782Z,1021.97
2023-04-18T06:16:52.051Z,1022.04
2023-04-18T06:17:51.748Z,1021.44
2023-04-18T06:18:51.673Z,1021.24
2023-04-18T06:19:51.972Z,1021.27
2023-04-18T06:20:52.020Z,1021.48
2023-04-18T06:21:51.659Z,1021.34
2023-04-18T06:22:51.681Z,1020.92
2023-04-18T06:23:51.930Z,1020.32
2023-04-18T06:24:51.620Z,1020.23
2023-04-18T06:25:51.596Z,1020.13
2023-04-18T06:26:51.601Z,1019.39
2023-04-18T06:27:51.584Z,1015.59
2023-04-18T06:28:51.558Z,1013.29
2023-04-18T06:29:51.579Z,1012.72
2023-04-18T06:30:51.535Z,1013.70
2023-04-18T06:31:51.653Z,1012.47
2023-04-18T06:32:51.582Z,1010.75
2023-04-18T06:33:51.512Z,1009.77
2023-04-18T06:34:51.796Z,1008.23
2023-04-18T06:35:51.476Z,1006.67
2023-04-18T06:36:51.462Z,1007.65
2023-04-18T06:37:51.483Z,1007.39
2023-04-18T06:38:51.833Z,1010.71
2023-04-18T06:39:51.441Z,1011.33
2023-04-18T06:40:51.440Z,1011.45
2023-04-18T06:41:51.446Z,1008.67
2023-04-18T06:42:51.396Z,1009.70
2023-04-18T06:44:14.511Z,1009.70
2023-04-18T06:44:52.418Z,1008.96
2023-04-18T06:45:51.748Z,1007.91
2023-04-18T06:46:51.356Z,1007.07
2023-04-18T06:47:51.712Z,1005.98
2023-04-18T06:48:51.628Z,1005.61
2023-04-18T06:49:51.706Z,1005.02
2023-04-18T06:50:51.651Z,1004.10
2023-04-18T06:51:51.343Z,1002.96
2023-04-18T06:52:51.283Z,1002.75
2023-04-18T06:53:51.286Z,1002.35
2023-04-18T06:54:51.576Z,1001.34
2023-04-18T06:55:51.231Z,1002.07
2023-04-18T06:56:51.645Z,1002.31
2023-04-18T06:57:51.256Z,1002.72
2023-04-18T06:58:51.228Z,1004.06
2023-04-18T06:59:51.211Z,1005.89
2023-04-18T07:00:51.210Z,1004.48
2023-04-18T07:01:51.211Z,1003.24
2023-04-18T07:02:51.295Z,1002.18
2023-04-18T07:03:51.271Z,1003.07
2023-04-18T07:04:51.168Z,1002.93
2023-04-18T07:05:51.458Z,1003.24
2023-04-18T07:06:51.125Z,1001.64
2023-04-18T07:07:51.123Z,1000.11
2023-04-18T07:08:53.317Z,991.92
2023-04-18T07:09:51.127Z,999.37
2023-04-18T07:10:51.065Z,982.00
2023-04-18T07:11:53.931Z,983.54
2023-04-18T07:12:51.080Z,981.56
2023-04-18T07:13:51.050Z,984.11
2023-04-18T07:14:51.080Z,982.48
2023-04-18T07:15:51.015Z,985.20
2023-04-18T07:16:51.087Z,987.11
2023-04-18T07:17:51.323Z,1008.63
2023-04-18T07:18:50.992Z,1014.98
2023-04-18T07:19:51.276Z,1011.57
2023-04-18T07:20:50.969Z,1006.18
2023-04-18T07:21:50.963Z,1014.20
2023-04-18T07:22:51.006Z,1020.59
2023-04-18T07:23:53.708Z,1019.96
2023-04-18T07:24:50.956Z,1017.58
2023-04-18T07:25:50.920Z,1016.19
2023-04-18T07:26:52.523Z,1012.78
2023-04-18T07:27:50.942Z,1010.93
2023-04-18T07:28:50.866Z,1010.32
2023-04-18T07:29:50.911Z,1008.83
2023-04-18T07:30:50.905Z,1005.58
2023-04-18T07:31:50.867Z,1004.31
2023-04-18T07:32:58.236Z,1004.16
2023-04-18T07:33:59.717Z,1003.74
2023-04-18T07:34:59.665Z,996.20
2023-04-18T07:35:58.627Z,1004.74
2023-04-18T07:36:50.788Z,983.21
2023-04-18T07:37:51.187Z,1006.43
2023-04-18T07:38:50.754Z,986.05
2023-04-18T07:39:51.136Z,985.68
2023-04-18T07:40:50.744Z,1005.54
2023-04-18T07:41:50.755Z,1014.39
2023-04-18T07:42:50.735Z,988.85
2023-04-18T07:43:50.718Z,991.13
2023-04-18T07:44:51.034Z,996.76
2023-04-18T07:45:50.756Z,1005.55
2023-04-18T07:46:50.699Z,1009.74
2023-04-18T07:47:50.746Z,1011.24
2023-04-18T07:48:52.455Z,1005.35
2023-04-18T07:49:50.653Z,996.84
2023-04-18T07:50:50.651Z,996.81
2023-04-18T07:51:50.659Z,997.14
2023-04-18T07:52:50.637Z,999.01
2023-04-18T07:53:50.611Z,1000.39
2023-04-18T07:54:50.991Z,1004.27
2023-04-18T07:55:50.588Z,1009.55
2023-04-18T07:56:50.581Z,1009.97
2023-04-18T07:57:50.604Z,1013.99
2023-04-18T07:58:52.382Z,1004.52
2023-04-18T07:59:50.544Z,1017.02
2023-04-18T08:00:50.807Z,1006.58
2023-04-18T08:01:50.505Z,1003.83
2023-04-18T08:02:50.620Z,1013.95
2023-04-18T08:03:50.632Z,1018.03
2023-04-18T08:04:51.046Z,1024.20
2023-04-18T08:05:50.497Z,1022.45
2023-04-18T08:06:50.610Z,1025.85
2023-04-18T08:07:50.551Z,1027.11
2023-04-18T08:08:50.442Z,1028.67
2023-04-18T08:09:50.425Z,1029.47
2023-04-18T08:10:50.455Z,1029.27
2023-04-18T08:11:50.439Z,1025.66
2023-04-18T08:12:50.714Z,1022.94
2023-04-18T08:13:50.390Z,1022.89
2023-04-18T08:14:50.363Z,1024.56
2023-04-18T08:15:50.417Z,1025.97
2023-04-18T08:16:50.392Z,1024.92
2023-04-18T08:17:50.373Z,1022.51
2023-04-18T08:18:50.319Z,1020.78
2023-04-18T08:19:50.318Z,1022.73
2023-04-18T08:20:50.292Z,1024.20
2023-04-18T08:21:50.338Z,1024.88
2023-04-18T08:23:05.252Z,1026.78
2023-04-18T08:23:51.262Z,1030.11
2023-04-18T08:25:03.817Z,1033.85
2023-04-18T08:25:51.263Z,1038.94
2023-04-18T08:26:50.256Z,1028.03
2023-04-18T08:27:50.276Z,1027.58
2023-04-18T08:28:50.200Z,1027.82
2023-04-18T08:29:50.557Z,1029.07
2023-04-18T08:30:50.188Z,1030.66
2023-04-18T08:31:50.178Z,1031.16
2023-04-18T08:32:50.530Z,1029.40
2023-04-18T08:33:50.155Z,1026.54
2023-04-18T08:34:50.154Z,1024.93
2023-04-18T08:35:50.116Z,1024.30
2023-04-18T08:36:50.116Z,1023.18
2023-04-18T08:37:50.117Z,1020.76
2023-04-18T08:38:50.062Z,1020.31
2023-04-18T08:39:50.380Z,1020.65
2023-04-18T08:40:50.053Z,1019.46
2023-04-18T08:41:55.823Z,1018.80
2023-04-18T08:42:50.035Z,1021.18
2023-04-18T08:43:50.037Z,1023.68
2023-04-18T08:44:50.017Z,1023.63
2023-04-18T08:45:50.061Z,1024.86
2023-04-18T08:46:49.997Z,1025.09
2023-04-18T08:47:50.052Z,1023.46
2023-04-18T08:48:50.000Z,1022.04
2023-04-18T08:49:49.941Z,1022.83
2023-04-18T08:50:49.978Z,1024.92
2023-04-18T08:51:49.971Z,1025.44
2023-04-18T08:52:49.944Z,1024.46
2023-04-18T08:53:50.276Z,1024.05
2023-04-18T08:54:49.908Z,1023.71
2023-04-18T08:55:49.879Z,1021.28
2023-04-18T08:56:49.902Z,1017.75
2023-04-18T08:57:49.892Z,1014.24
2023-04-18T08:58:50.605Z,1011.92
2023-04-18T08:59:51.125Z,1014.72
2023-04-18T09:00:49.917Z,1016.97
2023-04-18T09:01:49.842Z,1016.01
2023-04-18T09:02:49.914Z,1014.65
2023-04-18T09:03:49.810Z,1016.15
2023-04-18T09:04:49.802Z,1018.89
2023-04-18T09:05:49.763Z,1018.47
2023-04-18T09:06:49.776Z,1018.07
2023-04-18T09:07:49.809Z,1018.46
2023-04-18T09:08:49.741Z,1018.06
2023-04-18T09:09:49.713Z,1014.98
2023-04-18T09:10:49.739Z,1012.64
2023-04-18T09:11:50.091Z,1010.82
2023-04-18T09:12:49.764Z,1011.10
2023-04-18T09:13:49.986Z,1012.38
2023-04-18T09:14:49.670Z,1014.67
2023-04-18T09:15:49.661Z,1017.23
2023-04-18T09:16:57.023Z,1016.28
2023-04-18T09:17:57.248Z,1014.61
2023-04-18T09:18:59.553Z,1016.01
2023-04-18T09:19:57.008Z,1017.69
2023-04-18T09:20:59.749Z,1012.48
2023-04-18T09:21:56.975Z,1005.95
2023-04-18T09:22:56.985Z,1000.32
2023-04-18T09:23:49.572Z,995.55
2023-04-18T09:24:49.563Z,993.42
2023-04-18T09:25:49.541Z,994.99
2023-04-18T09:26:49.549Z,996.74
2023-04-18T09:27:49.858Z,1005.81
2023-04-18T09:28:49.828Z,1015.92
2023-04-18T09:29:49.830Z,1022.78
2023-04-18T09:30:49.564Z,1024.38
2023-04-18T09:31:49.506Z,1024.87
2023-04-18T09:32:49.526Z,1024.83
2023-04-18T09:33:49.455Z,1026.25
2023-04-18T09:34:49.443Z,1029.91
2023-04-18T09:35:49.452Z,1032.16
2023-04-18T09:36:49.476Z,1032.56
2023-04-18T09:37:49.732Z,1035.20
2023-04-18T09:38:49.444Z,1016.98
2023-04-18T09:39:49.406Z,1011.28
2023-04-18T09:40:52.181Z,1002.94
2023-04-18T09:41:49.691Z,1004.67
2023-04-18T09:42:49.381Z,1002.25
2023-04-18T09:43:52.140Z,1003.91
2023-04-18T09:44:49.336Z,1012.48
2023-04-18T09:45:49.409Z,1022.12
2023-04-18T09:46:49.454Z,1028.63
2023-04-18T09:47:49.371Z,1032.73
2023-04-18T09:48:49.297Z,1036.72
2023-04-18T09:49:49.276Z,1031.08
2023-04-18T09:50:49.278Z,1034.78
2023-04-18T09:51:49.281Z,1011.49
2023-04-18T09:52:51.963Z,1006.39
2023-04-18T09:53:49.258Z,1026.72
2023-04-18T09:54:49.268Z,1025.55
2023-04-18T09:55:49.220Z,1016.87
2023-04-18T09:56:49.230Z,1039.62
2023-04-18T09:57:49.493Z,1041.13
2023-04-18T09:58:49.178Z,1028.22
2023-04-18T09:59:49.148Z,1023.98
2023-04-18T10:00:49.449Z,1040.65
2023-04-18T10:01:49.160Z,1040.53
2023-04-18T10:02:49.227Z,1040.13
2023-04-18T10:03:49.252Z,1037.06
2023-04-18T10:04:49.194Z,1025.59
2023-04-18T10:05:52.035Z,1033.07
2023-04-18T10:06:49.526Z,1033.68
2023-04-18T10:07:49.070Z,1035.21
2023-04-18T10:08:49.096Z,1011.93
2023-04-18T10:09:49.068Z,1028.27
2023-04-18T10:10:49.324Z,1012.59
2023-04-18T10:11:49.047Z,1012.27
2023-04-18T10:12:49.384Z,1019.89
2023-04-18T10:13:49.009Z,1023.47
2023-04-18T10:14:48.975Z,1022.09
2023-04-18T10:15:50.616Z,1018.87
2023-04-18T10:16:50.486Z,1016.74
2023-04-18T10:18:02.653Z,1014.05
2023-04-18T10:18:49.947Z,1010.96
2023-04-18T10:19:48.969Z,1002.54
2023-04-18T10:20:48.922Z,995.19
2023-04-18T10:21:48.897Z,994.97
2023-04-18T10:22:49.280Z,993.66
2023-04-18T10:23:49.335Z,992.88
2023-04-18T10:24:48.856Z,993.37
2023-04-18T10:25:48.864Z,997.73
2023-04-18T10:26:49.184Z,1005.61
2023-04-18T10:27:49.059Z,1009.51
2023-04-18T10:28:48.811Z,1009.04
2023-04-18T10:29:49.788Z,1008.66
2023-04-18T10:30:54.042Z,1010.94
2023-04-18T10:31:48.874Z,1014.27
2023-04-18T10:32:49.154Z,1019.35
2023-04-18T10:34:00.768Z,1021.09
2023-04-18T10:34:49.726Z,1022.35
2023-04-18T10:35:48.750Z,1024.69
2023-04-18T10:36:48.757Z,1026.24
2023-04-18T10:37:48.718Z,1029.70
2023-04-18T10:38:49.021Z,1027.99
2023-04-18T10:39:48.710Z,1025.96
2023-04-18T10:40:49.051Z,1025.83
2023-04-18T10:41:49.483Z,1025.51
2023-04-18T10:42:48.688Z,1025.73
2023-04-18T10:43:48.643Z,1026.83
2023-04-18T10:44:49.008Z,1028.56
2023-04-18T10:45:48.696Z,1030.07
2023-04-18T10:46:48.687Z,1028.94
2023-04-18T10:47:48.752Z,1025.70
2023-04-18T10:48:48.893Z,1021.49
2023-04-18T10:49:48.573Z,1018.70
2023-04-18T10:50:48.549Z,1018.59
2023-04-18T10:51:48.573Z,1018.79
2023-04-18T10:52:50.477Z,1017.59
2023-04-18T10:53:48.842Z,1015.66
2023-04-18T10:54:48.809Z,1012.78
2023-04-18T10:55:48.858Z,1016.98
2023-04-18T10:56:48.533Z,1016.70
2023-04-18T10:57:48.828Z,1015.02
2023-04-18T10:58:48.461Z,1014.33
2023-04-18T10:59:48.520Z,1008.59
2023-04-18T11:00:48.482Z,1008.48
2023-04-18T11:01:48.452Z,1013.13
2023-04-18T11:02:48.555Z,1015.86
2023-04-18T11:03:48.485Z,1017.87
2023-04-18T11:04:55.923Z,1023.30
2023-04-18T11:05:56.846Z,1031.54
2023-04-18T11:06:48.398Z,1031.53
2023-04-18T11:07:56.745Z,1026.95
2023-04-18T11:08:48.329Z,1029.79
2023-04-18T11:09:48.402Z,1032.72
2023-04-18T11:10:48.331Z,1038.96
2023-04-18T11:11:48.383Z,1042.57
2023-04-18T11:12:48.287Z,1041.38
2023-04-18T11:13:48.269Z,1035.50
2023-04-18T11:14:48.293Z,1042.84
2023-04-18T11:15:48.297Z,1042.68
2023-04-18T11:16:48.354Z,1031.12
2023-04-18T11:17:48.289Z,1039.33
2023-04-18T11:18:48.243Z,1028.06
2023-04-18T11:19:48.260Z,1029.87
2023-04-18T11:20:48.257Z,1019.82
2023-04-18T11:21:48.237Z,1013.10
2023-04-18T11:22:48.544Z,1010.32
2023-04-18T11:23:48.178Z,1021.98
2023-04-18T11:24:48.512Z,1026.98
2023-04-18T11:25:48.189Z,1031.14
2023-04-18T11:26:48.218Z,1029.49
2023-04-18T11:27:48.165Z,1027.52
2023-04-18T11:28:48.149Z,1029.19
2023-04-18T11:29:48.141Z,1026.84
2023-04-18T11:30:48.477Z,1021.83
2023-04-18T11:31:48.125Z,1023.29
2023-04-18T11:32:48.111Z,1020.59
2023-04-18T11:33:48.074Z,1017.41
2023-04-18T11:34:48.070Z,1019.39
2023-04-18T11:35:48.129Z,1022.98
2023-04-18T11:36:48.110Z,1023.94
2023-04-18T11:37:48.453Z,1022.74
2023-04-18T11:38:48.009Z,1022.98
2023-04-18T11:39:48.039Z,1019.02
2023-04-18T11:40:48.279Z,1013.49
2023-04-18T11:41:47.975Z,1015.58
2023-04-18T11:42:47.956Z,1016.14
2023-04-18T11:43:47.993Z,1016.49
2023-04-18T11:44:47.988Z,1017.78
2023-04-18T11:45:47.990Z,1013.87
2023-04-18T11:46:48.216Z,1012.18
2023-04-18T11:47:47.984Z,1008.54
2023-04-18T11:48:47.887Z,1007.71
2023-04-18T11:49:47.922Z,1014.86
2023-04-18T11:50:47.965Z,1041.18
2023-04-18T11:51:47.886Z,1009.60
2023-04-18T11:52:47.859Z,1005.38
2023-04-18T11:53:47.841Z,995.80
2023-04-18T11:54:48.194Z,990.94
2023-04-18T11:55:47.840Z,982.41
2023-04-18T11:56:47.800Z,980.34
2023-04-18T11:57:47.792Z,985.77
2023-04-18T11:58:47.776Z,993.25
2023-04-18T11:59:47.792Z,999.59
2023-04-18T12:00:47.833Z,1004.30
2023-04-18T12:01:47.893Z,1002.10
2023-04-18T12:02:47.874Z,993.65
2023-04-18T12:03:47.834Z,986.95
2023-04-18T12:04:47.903Z,990.66
2023-04-18T12:05:47.869Z,995.88
2023-04-18T12:06:47.702Z,993.02
2023-04-18T12:07:47.696Z,994.64